Time;durP1;ratioP1;P1;durP2;ratioP2;P2;SDS_P1;SDS_P2;PMS_P1;PMS_P2;Temp;Humidity;BMP_temperature;BMP_pressure;BME280_temperature;BME280_humidity;BME280_pressure;Samples;Min_cycle;Max_cycle;Signal;HPM_P1;HPM_P2
2023/01/23 00:02:13;;;;;;;19.10;8.90;;;;;;;-0.31;100.00;102649.34;109240;1251;61714;-92
2023/01/23 00:05:00;;;;;;;20.80;9.40;;;;;;;-0.31;100.00;102648.90;109317;1252;61565;-90
2023/01/23 00:07:48;;;;;;;24.00;8.70;;;;;;;-0.29;100.00;102649.42;109106;1251;74596;-90
2023/01/23 00:10:39;;;;;;;22.40;10.00;;;;;;;-0.29;100.00;102647.10;109300;1253;70591;-91
2023/01/23 00:13:26;;;;;;;19.70;7.80;;;;;;;-0.30;100.00;102649.35;109057;1253;74587;-91
2023/01/23 00:16:17;;;;;;;18.60;7.50;;;;;;;-0.28;100.00;102652.58;109338;1251;59242;-90
2023/01/23 00:19:04;;;;;;;16.40;7.60;;;;;;;-0.33;100.00;102652.16;109199;1252;60777;-91
2023/01/23 00:21:52;;;;;;;18.40;8.00;;;;;;;-0.32;100.00;102647.81;109208;1253;75646;-90
2023/01/23 00:24:40;;;;;;;20.40;7.80;;;;;;;-0.31;100.00;102649.06;109349;1253;68093;-91
2023/01/23 00:27:28;;;;;;;23.80;9.90;;;;;;;-0.30;100.00;102645.39;109268;1251;74602;-89
2023/01/23 00:30:16;;;;;;;20.40;8.60;;;;;;;-0.25;100.00;102646.50;109235;1253;60273;-91
2023/01/23 00:33:04;;;;;;;18.90;8.50;;;;;;;-0.19;100.00;102647.23;109182;1253;62547;-92
2023/01/23 00:35:53;;;;;;;22.30;9.20;;;;;;;-0.11;100.00;102645.48;109195;1251;74455;-89
2023/01/23 00:38:41;;;;;;;20.10;9.10;;;;;;;-0.09;100.00;102646.14;109245;1251;70913;-89
2023/01/23 00:41:28;;;;;;;18.90;7.80;;;;;;;-0.11;100.00;102650.83;109402;1253;73470;-90
2023/01/23 00:44:16;;;;;;;21.10;7.80;;;;;;;-0.06;100.00;102648.55;109311;1251;62781;-91
2023/01/23 00:47:05;;;;;;;15.90;7.50;;;;;;;-0.01;100.00;102646.44;109331;1251;62265;-92
2023/01/23 00:49:54;;;;;;;14.50;7.00;;;;;;;0.01;100.00;102650.96;109189;1253;75763;-91
2023/01/23 00:52:41;;;;;;;19.10;6.70;;;;;;;0.02;100.00;102647.06;109388;1253;68175;-90
2023/01/23 00:55:29;;;;;;;16.90;6.80;;;;;;;0.03;100.00;102648.56;109351;1253;74957;-91
2023/01/23 00:58:17;;;;;;;15.40;6.60;;;;;;;0.05;100.00;102649.77;109096;1254;58402;-91
2023/01/23 01:01:05;;;;;;;12.40;5.20;;;;;;;0.06;100.00;102644.48;109302;1251;62877;-90
2023/01/23 01:03:52;;;;;;;14.90;6.10;;;;;;;0.08;100.00;102645.94;109230;1251;73843;-91
2023/01/23 01:06:40;;;;;;;17.60;6.70;;;;;;;0.14;100.00;102642.29;109376;1251;68797;-91
2023/01/23 01:09:28;;;;;;;14.70;5.80;;;;;;;0.16;100.00;102640.25;109136;1253;74118;-91
2023/01/23 01:12:15;;;;;;;13.10;6.20;;;;;;;0.17;100.00;102641.20;109175;1253;63320;-91
2023/01/23 01:15:04;;;;;;;17.20;7.00;;;;;;;0.22;100.00;102646.64;109167;1251;60955;-91
2023/01/23 01:17:54;;;;;;;19.20;8.00;;;;;;;0.23;100.00;102646.73;109192;1253;73855;-91
2023/01/23 01:20:43;;;;;;;17.60;7.30;;;;;;;0.22;100.00;102647.02;109172;1251;70125;-89
2023/01/23 01:23:30;;;;;;;16.10;7.10;;;;;;;0.23;100.00;102644.71;109125;1253;73536;-90
2023/01/23 01:26:18;;;;;;;20.00;7.90;;;;;;;0.21;100.00;102646.34;109446;1251;61774;-90
2023/01/23 01:29:05;;;;;;;18.40;8.00;;;;;;;0.23;100.00;102647.94;109398;1254;61645;-90
2023/01/23 01:31:54;;;;;;;20.80;7.60;;;;;;;0.27;100.00;102650.55;109382;1253;75674;-92
2023/01/23 01:34:41;;;;;;;13.70;5.90;;;;;;;0.30;100.00;102651.17;109082;1258;70540;-90
2023/01/23 01:37:37;;;;;;;16.90;7.20;;;;;;;0.32;100.00;102651.52;109376;1253;74300;-90
2023/01/23 01:40:27;;;;;;;20.90;7.40;;;;;;;0.34;100.00;102651.43;109336;1251;61195;-90
2023/01/23 01:43:20;;;;;;;16.30;7.20;;;;;;;0.33;100.00;102654.39;109279;1252;60775;-90
2023/01/23 01:46:08;;;;;;;15.80;6.70;;;;;;;0.32;100.00;102656.13;109350;1254;73842;-89
2023/01/23 01:49:12;;;;;;;17.80;6.30;;;;;;;0.35;100.00;102660.19;109379;1251;69054;-90
2023/01/23 01:52:08;;;;;;;14.60;5.90;;;;;;;0.37;100.00;102660.45;109296;1253;75205;-90
2023/01/23 01:55:01;;;;;;;15.00;6.40;;;;;;;0.37;100.00;102665.35;109246;1253;60351;-90
2023/01/23 01:57:53;;;;;;;14.60;5.90;;;;;;;0.36;100.00;102665.58;109221;1251;59290;-90
2023/01/23 02:00:40;;;;;;;16.20;5.80;;;;;;;0.36;100.00;102668.41;109368;1251;75612;-90
2023/01/23 02:03:28;;;;;;;13.80;6.70;;;;;;;0.37;100.00;102668.89;109490;1251;70834;-90
2023/01/23 02:06:16;;;;;;;13.50;7.00;;;;;;;0.38;100.00;102668.61;109269;1254;74119;-91
2023/01/23 02:09:10;;;;;;;17.70;6.50;;;;;;;0.40;100.00;102664.49;109290;1253;61435;-91
2023/01/23 02:11:58;;;;;;;11.50;4.80;;;;;;;0.39;100.00;102666.87;109168;1253;60549;-90
2023/01/23 02:14:45;;;;;;;14.60;6.10;;;;;;;0.40;100.00;102664.13;109213;1257;75960;-92
2023/01/23 02:17:34;;;;;;;15.60;6.60;;;;;;;0.44;100.00;102662.84;109317;1251;69893;-90
2023/01/23 02:20:22;;;;;;;17.60;6.70;;;;;;;0.44;100.00;102659.79;109246;1252;74369;-90
2023/01/23 02:23:32;;;;;;;16.40;5.20;;;;;;;0.46;100.00;102657.27;109147;1253;63095;-92
2023/01/23 02:26:26;;;;;;;17.80;7.50;;;;;;;0.47;100.00;102651.23;109211;1251;61062;-89
2023/01/23 02:29:14;;;;;;;16.70;5.80;;;;;;;0.52;100.00;102648.62;109123;1252;76221;-91
2023/01/23 02:32:09;;;;;;;18.10;7.60;;;;;;;0.46;100.00;102643.08;109101;1256;70504;-92
2023/01/23 02:34:57;;;;;;;16.10;5.80;;;;;;;0.44;100.00;102646.16;109062;1253;72754;-91
2023/01/23 02:37:45;;;;;;;17.80;6.50;;;;;;;0.43;100.00;102643.48;109271;1251;61249;-90
2023/01/23 02:40:36;;;;;;;18.00;6.90;;;;;;;0.47;100.00;102648.42;109123;1258;63447;-90
2023/01/23 02:43:33;;;;;;;12.00;6.00;;;;;;;0.49;100.00;102644.94;109221;1253;74048;-90
2023/01/23 02:46:22;;;;;;;19.40;8.20;;;;;;;0.50;100.00;102645.89;109170;1256;71827;-89
2023/01/23 02:49:10;;;;;;;17.90;7.20;;;;;;;0.46;100.00;102645.02;109165;1253;73433;-91
2023/01/23 02:51:57;;;;;;;12.90;6.60;;;;;;;0.49;100.00;102644.94;109091;1254;63071;-91
2023/01/23 02:54:46;;;;;;;20.30;7.20;;;;;;;0.43;100.00;102648.78;109117;1253;62689;-93
2023/01/23 02:57:34;;;;;;;17.10;6.90;;;;;;;0.39;100.00;102649.52;109170;1251;76031;-91
2023/01/23 03:00:22;;;;;;;25.00;7.20;;;;;;;0.37;100.00;102651.66;109156;1254;70672;-89
2023/01/23 03:03:10;;;;;;;21.30;7.40;;;;;;;0.36;100.00;102651.28;109019;1251;74661;-90
2023/01/23 03:06:01;;;;;;;20.00;6.30;;;;;;;0.29;100.00;102649.32;109143;1251;60220;-91
2023/01/23 03:08:49;;;;;;;16.40;6.10;;;;;;;0.25;100.00;102643.27;109375;1257;61230;-90
2023/01/23 03:11:38;;;;;;;16.70;6.70;;;;;;;0.26;100.00;102646.04;109210;1251;75969;-90
2023/01/23 03:14:27;;;;;;;15.90;5.80;;;;;;;0.27;100.00;102645.54;109082;1254;69821;-90
2023/01/23 03:17:14;;;;;;;18.00;6.70;;;;;;;0.31;100.00;102644.95;109112;1251;74505;-90
2023/01/23 03:20:05;;;;;;;16.60;5.90;;;;;;;0.34;100.00;102639.49;109420;1251;63810;-91
2023/01/23 03:22:53;;;;;;;15.20;6.00;;;;;;;0.32;100.00;102635.90;109146;1251;61747;-90
2023/01/23 03:25:43;;;;;;;13.10;5.30;;;;;;;0.31;100.00;102633.70;109417;1251;74872;-91
2023/01/23 03:31:38;;;;;;;12.70;6.20;;;;;;;0.24;100.00;102630.86;109262;1252;74884;-91
2023/01/23 03:34:26;;;;;;;17.70;5.70;;;;;;;0.24;100.00;102633.71;109318;1251;59661;-90
2023/01/23 03:37:14;;;;;;;18.10;6.30;;;;;;;0.24;100.00;102628.46;109217;1256;62141;-91
2023/01/23 03:43:10;;;;;;;14.00;5.00;;;;;;;0.28;100.00;102628.27;109202;1253;70631;-90
2023/01/23 03:46:03;;;;;;;13.00;5.40;;;;;;;0.21;100.00;102627.56;109283;1253;73831;-91
2023/01/23 03:48:51;;;;;;;10.90;4.90;;;;;;;0.19;100.00;102628.65;109108;1254;60718;-89
2023/01/23 03:51:39;;;;;;;17.60;5.20;;;;;;;0.19;100.00;102627.20;109103;1251;62456;-91
2023/01/23 03:54:27;;;;;;;15.30;6.10;;;;;;;0.19;100.00;102626.33;109287;1256;74964;-90
2023/01/23 03:57:15;;;;;;;16.80;5.90;;;;;;;0.24;100.00;102626.05;109327;1251;71443;-90
2023/01/23 04:00:18;;;;;;;15.60;6.40;;;;;;;0.22;100.00;102627.96;109294;1256;74554;-89
2023/01/23 06:06:08;;;;;;;33.20;10.60;;;;;;;-2.18;100.00;102710.77;105740;1291;599679;-89
2023/01/23 06:08:58;;;;;;;32.30;11.30;;;;;;;-2.04;100.00;102718.97;108423;1267;64385;-89
2023/01/23 06:11:46;;;;;;;43.30;15.50;;;;;;;-2.00;100.00;102725.03;108360;1267;60633;-89
2023/01/23 06:14:34;;;;;;;32.30;15.90;;;;;;;-1.90;100.00;102723.81;108315;1266;74352;-92
2023/01/23 06:17:24;;;;;;;18.30;8.10;;;;;;;-1.81;100.00;102720.09;108771;1260;69530;-89
2023/01/23 06:20:12;;;;;;;23.50;9.50;;;;;;;-1.72;100.00;102720.67;108627;1257;213442;-90
2023/01/23 06:23:01;;;;;;;30.50;13.90;;;;;;;-1.55;100.00;102718.53;108829;1259;62651;-89
2023/01/23 06:25:49;;;;;;;41.00;15.90;;;;;;;-1.45;100.00;102720.09;108839;1258;60778;-90
2023/01/23 06:28:37;;;;;;;38.60;13.60;;;;;;;-1.33;100.00;102726.27;108710;1260;74691;-90
2023/01/23 06:31:25;;;;;;;24.70;9.80;;;;;;;-1.26;100.00;102727.10;108875;1257;70733;-89
2023/01/23 06:34:14;;;;;;;27.90;12.00;;;;;;;-1.19;100.00;102728.78;108716;1260;74398;-92
2023/01/23 06:37:10;;;;;;;27.70;11.40;;;;;;;-1.12;100.00;102733.50;108752;1257;62321;-89
2023/01/23 06:39:59;;;;;;;28.70;10.50;;;;;;;-1.05;100.00;102736.72;108786;1260;60954;-90
2023/01/23 06:42:49;;;;;;;20.50;7.40;;;;;;;-0.96;100.00;102741.23;108810;1257;74773;-90
2023/01/23 06:45:37;;;;;;;26.40;8.10;;;;;;;-0.87;100.00;102740.33;108820;1257;70914;-92
2023/01/23 06:48:25;;;;;;;23.60;8.70;;;;;;;-0.81;100.00;102741.95;108738;1259;73993;-90
2023/01/23 06:51:12;;;;;;;28.50;10.70;;;;;;;-0.75;100.00;102741.17;109121;1253;61346;-91
2023/01/23 06:54:02;;;;;;;19.60;7.70;;;;;;;-0.71;100.00;102743.52;109088;1254;60782;-91
2023/01/23 06:56:50;;;;;;;14.70;6.10;;;;;;;-0.68;100.00;102736.90;109285;1254;75447;-91
2023/01/23 06:59:39;;;;;;;21.70;8.00;;;;;;;-0.65;100.00;102744.86;109058;1252;70071;-91
2023/01/23 07:02:29;;;;;;;23.90;9.50;;;;;;;-0.64;100.00;102744.26;109190;1253;74930;-91
2023/01/23 07:05:16;;;;;;;20.60;7.90;;;;;;;-0.60;100.00;102743.98;109016;1253;61815;-92
2023/01/23 07:08:06;;;;;;;16.80;7.20;;;;;;;-0.58;100.00;102745.82;109203;1254;61053;-92
2023/01/23 07:10:54;;;;;;;19.00;5.80;;;;;;;-0.49;100.00;102748.33;109098;1253;74226;-90
2023/01/23 07:13:42;;;;;;;16.80;5.40;;;;;;;-0.40;100.00;102751.95;109226;1258;69924;-90
2023/01/23 07:16:33;;;;;;;36.90;12.90;;;;;;;-0.30;100.00;102757.90;109040;1254;73355;-90
2023/01/23 07:19:21;;;;;;;18.10;8.20;;;;;;;-0.30;100.00;102760.38;109105;1254;58035;-90
2023/01/23 07:22:09;;;;;;;23.00;9.00;;;;;;;-0.20;100.00;102768.38;109191;1254;60935;-91
2023/01/23 07:24:56;;;;;;;17.30;6.70;;;;;;;-0.16;100.00;102769.57;109353;1254;75008;-91
2023/01/23 07:27:44;;;;;;;16.60;6.70;;;;;;;-0.11;100.00;102775.23;109110;1254;71074;-91
2023/01/23 07:30:32;;;;;;;15.00;6.00;;;;;;;-0.07;100.00;102771.91;109111;1254;74430;-91
2023/01/23 07:33:20;;;;;;;17.70;8.20;;;;;;;-0.09;100.00;102770.34;109054;1254;62345;-91
2023/01/23 07:36:08;;;;;;;22.50;7.80;;;;;;;-0.07;100.00;102768.89;109227;1253;62620;-91
2023/01/23 07:38:57;;;;;;;21.50;8.10;;;;;;;-0.06;100.00;102766.98;109160;1253;75220;-91
2023/01/23 07:41:45;;;;;;;19.90;7.40;;;;;;;-0.06;100.00;102765.20;109028;1259;68492;-90
2023/01/23 07:44:33;;;;;;;17.40;6.90;;;;;;;-0.02;100.00;102765.14;109052;1254;74552;-92
2023/01/23 07:47:21;;;;;;;16.70;7.60;;;;;;;0.04;100.00;102767.69;109139;1254;59923;-91
2023/01/23 07:50:12;;;;;;;14.80;6.20;;;;;;;0.01;100.00;102767.39;109073;1253;62639;-91
2023/01/23 07:52:59;;;;;;;15.20;7.10;;;;;;;0.05;100.00;102773.85;109128;1259;72750;-91
2023/01/23 07:55:47;;;;;;;16.40;6.50;;;;;;;0.06;100.00;102770.16;109114;1254;71077;-91
2023/01/23 07:58:35;;;;;;;17.50;7.50;;;;;;;0.02;100.00;102775.42;109119;1254;74550;-92
2023/01/23 08:01:23;;;;;;;17.00;7.70;;;;;;;-0.03;100.00;102778.70;109116;1253;61344;-90
2023/01/23 08:04:11;;;;;;;20.90;8.30;;;;;;;-0.04;100.00;102775.58;109297;1254;62791;-91
2023/01/23 08:06:58;;;;;;;19.80;7.90;;;;;;;0.02;100.00;102775.38;109005;1254;74916;-92
2023/01/23 08:09:46;;;;;;;21.50;8.30;;;;;;;0.06;100.00;102778.73;109178;1259;71371;-92
2023/01/23 08:12:34;;;;;;;21.30;8.60;;;;;;;0.14;100.00;102772.75;109101;1253;71433;-91
2023/01/23 08:15:22;;;;;;;16.40;7.20;;;;;;;0.21;100.00;102767.51;108997;1253;57950;-90
2023/01/23 08:18:10;;;;;;;23.00;7.90;;;;;;;0.25;100.00;102766.95;109164;1254;62036;-91
2023/01/23 08:20:59;;;;;;;19.20;7.10;;;;;;;0.25;100.00;102766.79;109332;1253;73912;-91
2023/01/23 08:23:46;;;;;;;22.30;8.70;;;;;;;0.14;100.00;102766.64;109084;1254;69452;-91
2023/01/23 08:26:34;;;;;;;21.90;8.00;;;;;;;0.17;100.00;102766.50;109101;1253;73308;-91
2023/01/23 08:29:23;;;;;;;19.90;7.90;;;;;;;0.21;100.00;102762.70;109259;1253;62243;-92
2023/01/23 08:32:10;;;;;;;18.00;6.80;;;;;;;0.24;100.00;102763.16;109274;1254;62561;-90
2023/01/23 08:34:58;;;;;;;21.20;8.30;;;;;;;0.27;100.00;102764.98;109023;1253;75102;-91
2023/01/23 08:37:46;;;;;;;17.70;7.30;;;;;;;0.28;100.00;102765.95;109150;1253;69313;-90
2023/01/23 08:40:33;;;;;;;17.70;8.20;;;;;;;0.30;100.00;102770.45;109073;1254;74052;-90
2023/01/23 08:43:21;;;;;;;19.20;7.30;;;;;;;0.31;100.00;102769.01;109173;1254;61509;-92
2023/01/23 08:46:09;;;;;;;14.00;6.90;;;;;;;0.32;100.00;102766.33;109067;1253;61759;-91
2023/01/23 08:48:57;;;;;;;16.50;6.70;;;;;;;0.37;100.00;102764.86;109028;1259;75302;-92
2023/01/23 08:51:45;;;;;;;17.10;7.10;;;;;;;0.42;100.00;102762.75;109168;1254;70025;-92
2023/01/23 08:54:33;;;;;;;18.70;7.50;;;;;;;0.42;100.00;102763.08;109235;1254;74789;-92
2023/01/23 08:57:21;;;;;;;17.40;7.30;;;;;;;0.43;100.00;102763.18;109182;1253;61540;-92
2023/01/23 09:00:09;;;;;;;20.70;8.30;;;;;;;0.42;100.00;102760.60;109173;1254;61417;-91
2023/01/23 09:03:01;;;;;;;19.20;8.00;;;;;;;0.43;100.00;102762.25;109066;1254;75016;-91
2023/01/23 09:05:49;;;;;;;18.10;7.30;;;;;;;0.40;100.00;102763.61;109118;1253;69430;-90
2023/01/23 09:08:37;;;;;;;19.50;6.50;;;;;;;0.38;100.00;102765.25;109024;1259;75078;-92
2023/01/23 09:11:25;;;;;;;18.70;8.00;;;;;;;0.40;100.00;102763.08;109145;1254;60983;-90
2023/01/23 09:14:12;;;;;;;16.40;6.90;;;;;;;0.37;100.00;102764.63;109139;1254;62878;-90
2023/01/23 09:17:00;;;;;;;29.40;10.30;;;;;;;0.36;100.00;102758.83;109366;1254;72856;-91
2023/01/23 09:19:48;;;;;;;23.90;8.70;;;;;;;0.40;100.00;102756.81;109095;1253;68866;-92
2023/01/23 09:22:35;;;;;;;18.20;7.40;;;;;;;0.42;100.00;102760.73;108981;1254;75251;-92
2023/01/23 09:25:23;;;;;;;19.70;7.80;;;;;;;0.44;100.00;102755.91;108979;1254;60602;-91
2023/01/23 09:28:11;;;;;;;19.30;8.00;;;;;;;0.45;100.00;102756.02;109136;1253;60998;-90
2023/01/23 09:31:06;;;;;;;23.30;8.50;;;;;;;0.45;100.00;102755.15;109092;1254;75265;-91
2023/01/23 09:33:53;;;;;;;22.20;8.90;;;;;;;0.47;100.00;102751.13;109097;1258;70809;-91
2023/01/23 09:36:41;;;;;;;29.70;12.30;;;;;;;0.54;100.00;102754.51;109071;1254;74285;-91
2023/01/23 09:39:30;;;;;;;21.00;9.10;;;;;;;0.58;100.00;102752.71;109224;1254;61432;-92
2023/01/23 09:42:26;;;;;;;20.70;8.40;;;;;;;0.60;100.00;102752.13;109136;1254;62296;-91
2023/01/23 09:45:16;;;;;;;18.10;6.70;;;;;;;0.62;100.00;102750.44;109181;1254;74840;-91
2023/01/23 09:48:43;;;;;;;16.40;7.70;;;;;;;0.65;100.00;102757.32;109012;1254;69386;-92
2023/01/23 09:51:37;;;;;;;17.70;7.10;;;;;;;0.65;100.00;102753.95;109242;1254;73187;-92
2023/01/23 09:54:46;;;;;;;20.50;8.20;;;;;;;0.68;100.00;102747.92;109203;1253;60577;-91
2023/01/23 14:05:12;;;;;;;22.30;7.40;;;;;;;-0.91;100.00;102732.52;105478;1292;601793;-89
2023/01/23 14:08:19;;;;;;;27.30;11.70;;;;;;;-0.84;100.00;102735.63;107816;1271;61788;-90
2023/01/23 14:11:20;;;;;;;33.80;14.90;;;;;;;-0.76;100.00;102743.41;107249;1278;62280;-91
2023/01/23 14:17:42;;;;;;;18.20;8.40;;;;;;;-0.52;100.00;102743.27;106260;1282;210930;-91
2023/01/23 14:20:44;;;;;;;20.10;7.90;;;;;;;-0.42;100.00;102743.17;106200;1288;72656;-91
2023/01/23 14:23:34;;;;;;;19.20;8.40;;;;;;;-0.31;100.00;102745.27;106528;1285;61486;-90
2023/01/23 14:26:25;;;;;;;21.60;7.50;;;;;;;-0.21;100.00;102747.21;106143;1287;60526;-91
2023/01/23 14:29:22;;;;;;;13.20;6.00;;;;;;;-0.16;100.00;102748.27;106279;1286;73282;-91
2023/01/23 14:32:29;;;;;;;22.90;9.20;;;;;;;-0.03;100.00;102749.71;106490;1283;68988;-90
2023/01/23 14:35:19;;;;;;;15.00;7.40;;;;;;;0.09;100.00;102744.52;107280;1276;73546;-90
2023/01/23 14:38:07;;;;;;;23.70;9.70;;;;;;;0.19;100.00;102742.25;107342;1271;61664;-91
2023/01/23 14:40:55;;;;;;;21.10;8.00;;;;;;;0.26;100.00;102744.49;107755;1271;59552;-93
2023/01/23 14:43:45;;;;;;;18.60;7.30;;;;;;;0.33;100.00;102743.73;108354;1263;75277;-90
2023/01/23 14:46:37;;;;;;;19.90;7.10;;;;;;;0.38;100.00;102745.17;108871;1257;71078;-90
2023/01/23 14:49:26;;;;;;;;;;;;;;;0.39;100.00;102746.48;108763;1258;76984;-91
2023/01/23 14:52:30;;;;;;;15.60;6.70;;;;;;;0.40;100.00;102747.81;108801;1256;61934;-91
2023/01/23 14:55:20;;;;;;;15.30;6.90;;;;;;;0.42;100.00;102748.89;108766;1256;58241;-90
2023/01/23 14:58:22;;;;;;;20.60;6.30;;;;;;;0.46;100.00;102744.99;108804;1257;74228;-90
2023/01/23 15:01:10;;;;;;;17.10;7.00;;;;;;;0.49;100.00;102748.98;108955;1257;70998;-90
2023/01/23 15:04:22;;;;;;;17.60;7.30;;;;;;;0.39;100.00;102744.91;108903;1256;74074;-91
2023/01/23 15:07:13;;;;;;;21.50;6.70;;;;;;;0.39;100.00;102748.88;108855;1257;63659;-91
2023/01/23 15:10:01;;;;;;;17.80;6.00;;;;;;;0.38;100.00;102749.50;108819;1257;61277;-91
2023/01/23 15:12:55;;;;;;;15.60;6.70;;;;;;;0.40;100.00;102749.89;108886;1257;75058;-92
2023/01/23 15:15:51;;;;;;;24.80;7.30;;;;;;;0.40;100.00;102752.45;108778;1257;70570;-91
2023/01/23 15:18:39;;;;;;;13.70;6.30;;;;;;;0.43;100.00;102752.38;108805;1257;72540;-89
2023/01/23 15:21:32;;;;;;;20.50;7.10;;;;;;;0.43;100.00;102756.68;109005;1257;60732;-91
2023/01/23 15:24:26;;;;;;;15.40;7.30;;;;;;;0.41;100.00;102759.58;108876;1257;61515;-89
2023/01/23 15:27:33;;;;;;;18.10;7.30;;;;;;;0.41;100.00;102760.11;108900;1257;75350;-91
2023/01/23 15:30:27;;;;;;;21.70;8.10;;;;;;;0.39;100.00;102761.09;108806;1257;70792;-90
2023/01/23 15:33:28;;;;;;;21.80;8.20;;;;;;;0.45;100.00;102759.39;108822;1257;75013;-90
2023/01/23 15:36:27;;;;;;;28.30;7.90;;;;;;;0.50;100.00;102760.87;109120;1253;59636;-90
2023/01/23 15:39:28;;;;;;;15.20;6.60;;;;;;;0.48;100.00;102765.42;109286;1254;60069;-92
2023/01/23 15:42:17;;;;;;;21.40;6.80;;;;;;;0.54;100.00;102765.81;109211;1252;74032;-91
2023/01/23 15:45:12;;;;;;;17.20;6.30;;;;;;;0.57;100.00;102765.32;109226;1254;69476;-91
2023/01/23 15:48:01;;;;;;;17.40;6.30;;;;;;;0.58;100.00;102763.75;109129;1252;73633;-91
2023/01/23 15:50:50;;;;;;;17.00;6.40;;;;;;;0.59;100.00;102765.87;109261;1253;59582;-90
2023/01/23 15:53:40;;;;;;;11.80;6.00;;;;;;;0.58;100.00;102765.73;109396;1253;60304;-91
2023/01/23 15:56:32;;;;;;;21.30;7.00;;;;;;;0.57;100.00;102769.48;109178;1253;74072;-90
2023/01/23 20:07:25;;;;;;;20.60;8.20;;;;;;;-2.56;100.00;102814.56;105776;1292;599642;-89
2023/01/23 20:10:15;;;;;;;21.80;8.40;;;;;;;-2.55;100.00;102812.17;108377;1266;63469;-89
2023/01/23 20:13:04;;;;;;;21.30;9.10;;;;;;;-2.47;100.00;102811.05;108519;1264;60375;-90
2023/01/23 20:15:53;;;;;;;17.50;8.20;;;;;;;-2.32;100.00;102808.86;108546;1266;72809;-91
2023/01/23 20:18:42;;;;;;;13.40;6.90;;;;;;;-2.10;100.00;102805.06;108452;1266;67957;-88
2023/01/23 20:21:31;;;;;;;17.30;6.80;;;;;;;-1.84;100.00;102806.61;108247;1264;332823;-90
2023/01/23 20:24:20;;;;;;;17.00;6.40;;;;;;;-1.73;100.00;102794.40;108651;1264;57628;-89
2023/01/23 20:27:10;;;;;;;12.60;5.40;;;;;;;-1.65;100.00;102794.04;108632;1263;60834;-89
2023/01/23 20:29:59;;;;;;;17.30;6.30;;;;;;;-1.57;100.00;102800.31;108778;1263;73180;-90
2023/01/23 20:32:49;;;;;;;13.20;6.00;;;;;;;-1.50;100.00;102799.64;108551;1266;69647;-89
2023/01/23 20:35:38;;;;;;;13.60;6.70;;;;;;;-1.44;100.00;102799.73;108519;1263;72998;-90
2023/01/23 20:38:27;;;;;;;16.30;6.10;;;;;;;-1.38;100.00;102806.20;108521;1263;58803;-90
2023/01/23 20:41:18;;;;;;;15.50;5.90;;;;;;;-1.30;100.00;102809.20;108730;1264;61606;-90
2023/01/23 20:44:08;;;;;;;12.90;5.60;;;;;;;-1.26;100.00;102809.89;108517;1263;72611;-90
2023/01/23 20:46:56;;;;;;;14.90;6.60;;;;;;;-1.23;100.00;102808.69;108698;1263;69406;-89
2023/01/23 20:49:46;;;;;;;18.20;6.50;;;;;;;-1.19;100.00;102807.31;108685;1263;72720;-91
2023/01/23 20:55:42;;;;;;;13.00;6.00;;;;;;;-1.14;100.00;102807.71;108585;1263;60165;-89
2023/01/23 21:04:48;;;;;;;13.30;6.30;;;;;;;-0.90;100.00;102797.86;109116;1256;71690;-89
2023/01/23 21:07:37;;;;;;;13.90;6.30;;;;;;;-0.86;100.00;102793.19;108875;1257;59846;-89
2023/01/23 21:10:26;;;;;;;14.70;6.30;;;;;;;-0.87;100.00;102796.16;108957;1257;60248;-90
2023/01/23 21:13:16;;;;;;;17.50;7.10;;;;;;;-0.82;100.00;102796.80;109058;1256;72725;-90
2023/01/23 21:16:07;;;;;;;17.50;7.40;;;;;;;-0.80;100.00;102794.84;109045;1256;69868;-91
2023/01/23 21:18:56;;;;;;;18.40;6.60;;;;;;;-0.85;100.00;102790.83;108923;1256;72227;-91
2023/01/23 21:21:45;;;;;;;14.00;6.10;;;;;;;-0.88;100.00;102790.17;109001;1256;59582;-90
2023/01/23 21:24:34;;;;;;;12.20;5.30;;;;;;;-0.88;100.00;102795.17;108849;1257;63789;-90
2023/01/23 21:27:23;;;;;;;15.00;6.50;;;;;;;-0.87;100.00;102790.83;108905;1260;73031;-90
2023/01/23 21:30:14;;;;;;;15.30;6.30;;;;;;;-0.89;100.00;102794.92;108821;1257;68947;-89
2023/01/23 21:33:03;;;;;;;18.90;8.60;;;;;;;-0.92;100.00;102791.62;108793;1257;74295;-89
2023/01/23 21:35:53;;;;;;;17.60;8.40;;;;;;;-0.96;100.00;102791.14;109054;1256;58588;-91
2023/01/23 21:38:41;;;;;;;22.10;9.20;;;;;;;-1.01;100.00;102793.20;109017;1256;60728;-91
2023/01/23 21:41:32;;;;;;;14.00;6.10;;;;;;;-0.99;100.00;102789.79;109045;1256;72479;-90
2023/01/23 21:44:21;;;;;;;16.30;6.10;;;;;;;-0.97;100.00;102793.98;108956;1257;69934;-90
2023/01/23 21:47:10;;;;;;;13.50;5.70;;;;;;;-1.01;100.00;102794.69;108966;1256;73822;-89
2023/01/23 21:49:59;;;;;;;14.50;6.40;;;;;;;-0.99;100.00;102794.33;109131;1256;60595;-90
2023/01/23 21:52:48;;;;;;;23.00;7.30;;;;;;;-0.98;100.00;102791.01;109206;1255;58479;-89
2023/01/23 21:55:37;;;;;;;13.30;6.80;;;;;;;-0.99;100.00;102792.16;109215;1256;73859;-90
2023/01/23 21:58:28;;;;;;;32.70;12.70;;;;;;;-0.98;100.00;102791.52;109236;1256;70376;-90
2023/01/23 22:01:34;;;;;;;24.00;9.30;;;;;;;-0.97;100.00;102789.11;108984;1257;73597;-90
2023/01/23 22:04:24;;;;;;;19.60;8.40;;;;;;;-0.88;100.00;102783.90;109144;1253;60902;-90
2023/01/23 22:07:13;;;;;;;14.10;6.10;;;;;;;-0.88;100.00;102786.65;109242;1252;60269;-89
2023/01/23 22:10:02;;;;;;;16.50;6.80;;;;;;;-0.89;100.00;102782.41;109328;1253;71700;-89
2023/01/23 22:12:51;;;;;;;13.20;6.00;;;;;;;-0.89;100.00;102780.64;109242;1254;68841;-91
2023/01/23 22:15:40;;;;;;;19.20;8.30;;;;;;;-0.86;100.00;102777.89;109155;1253;72053;-90
2023/01/23 22:18:32;;;;;;;;;;;;;;;-0.79;100.00;102778.67;109092;1253;62462;-91
2023/01/23 22:21:21;;;;;;;20.70;7.90;;;;;;;-0.77;100.00;102775.75;109295;1253;59129;-89
2023/01/23 22:24:10;;;;;;;18.60;7.50;;;;;;;-0.76;100.00;102777.11;109268;1253;73039;-91
2023/01/23 22:26:59;;;;;;;31.50;13.20;;;;;;;-0.83;100.00;102774.11;109094;1254;69999;-90
2023/01/23 22:29:48;;;;;;;23.50;8.50;;;;;;;-0.86;100.00;102772.82;109173;1253;73507;-89
2023/01/23 22:32:37;;;;;;;15.60;6.70;;;;;;;-0.82;100.00;102768.73;109435;1253;61929;-89
2023/01/23 22:35:26;;;;;;;14.00;6.80;;;;;;;-0.82;100.00;102772.46;109156;1252;59988;-90
2023/01/23 22:38:15;;;;;;;17.60;7.70;;;;;;;-0.87;100.00;102770.05;109284;1253;73924;-90
2023/01/23 22:41:04;;;;;;;17.60;7.30;;;;;;;-0.93;100.00;102770.98;109396;1253;68221;-90
2023/01/23 22:43:54;;;;;;;14.30;7.10;;;;;;;-0.90;100.00;102762.86;109222;1252;71528;-89
2023/01/23 22:46:43;;;;;;;17.60;7.10;;;;;;;-0.92;100.00;102761.79;109217;1253;59442;-89
2023/01/23 22:49:32;;;;;;;15.70;6.40;;;;;;;-0.88;100.00;102761.23;109317;1253;61215;-90
2023/01/23 22:52:22;;;;;;;15.60;6.80;;;;;;;-0.90;100.00;102761.53;109408;1253;71738;-89
2023/01/23 22:55:11;;;;;;;16.00;7.20;;;;;;;-0.91;100.00;102763.45;109220;1254;68773;-91
2023/01/23 22:58:00;;;;;;;21.90;8.00;;;;;;;-0.95;100.00;102763.45;109146;1254;72711;-90
2023/01/23 23:00:51;;;;;;;16.30;6.90;;;;;;;-0.89;100.00;102765.40;109155;1252;58581;-91
2023/01/23 23:03:40;;;;;;;15.70;6.50;;;;;;;-0.86;100.00;102763.56;109274;1252;61105;-90
2023/01/23 23:06:29;;;;;;;16.50;7.20;;;;;;;-0.87;100.00;102762.71;109179;1254;73188;-90
2023/01/23 23:09:18;;;;;;;19.20;6.70;;;;;;;-0.84;100.00;102763.41;109244;1252;68424;-90
2023/01/23 23:12:07;;;;;;;17.80;7.10;;;;;;;-0.82;100.00;102768.84;109325;1252;73829;-91
2023/01/23 23:14:56;;;;;;;14.20;6.40;;;;;;;-0.79;100.00;102770.25;109371;1252;58945;-89
2023/01/23 23:17:45;;;;;;;11.20;6.30;;;;;;;-0.76;100.00;102772.64;109442;1253;61470;-91
2023/01/23 23:20:35;;;;;;;16.30;6.80;;;;;;;-0.66;100.00;102775.52;109218;1253;71329;-90
2023/01/23 23:23:24;;;;;;;18.90;7.80;;;;;;;-0.48;100.00;102772.55;109377;1252;68810;-90
2023/01/23 23:26:13;;;;;;;15.90;7.30;;;;;;;-0.49;100.00;102774.76;109265;1252;73812;-91